sensor_id;sensor_type;location;lat;lon;timestamp;P1;durP1;ratioP1;P2;durP2;ratioP2
20443;SDS011;10381;53.730;10.010;2023-04-28T00:00:57;46.37;;;34.97;;
20443;SDS011;10381;53.730;10.010;2023-04-28T00:04:57;43.83;;;35.63;;
20443;SDS011;10381;53.730;10.010;2023-04-28T00:08:57;44.23;;;36.20;;
20443;SDS011;10381;53.730;10.010;2023-04-28T00:12:58;47.33;;;35.83;;
20443;SDS011;10381;53.730;10.010;2023-04-28T00:16:58;49.93;;;37.93;;
20443;SDS011;10381;53.730;10.010;2023-04-28T00:20:58;42.67;;;34.05;;
20443;SDS011;10381;53.730;10.010;2023-04-28T00:25:00;43.35;;;35.03;;
20443;SDS011;10381;53.730;10.010;2023-04-28T00:29:00;44.60;;;36.17;;
20443;SDS011;10381;53.730;10.010;2023-04-28T00:33:01;46.88;;;35.92;;
20443;SDS011;10381;53.730;10.010;2023-04-28T00:37:01;50.15;;;37.63;;
20443;SDS011;10381;53.730;10.010;2023-04-28T00:41:02;44.30;;;34.65;;
20443;SDS011;10381;53.730;10.010;2023-04-28T00:45:03;47.20;;;34.30;;
20443;SDS011;10381;53.730;10.010;2023-04-28T00:49:06;42.90;;;36.65;;
20443;SDS011;10381;53.730;10.010;2023-04-28T00:53:06;41.63;;;37.15;;
20443;SDS011;10381;53.730;10.010;2023-04-28T00:57:07;47.85;;;37.83;;
20443;SDS011;10381;53.730;10.010;2023-04-28T01:01:09;52.97;;;40.75;;
20443;SDS011;10381;53.730;10.010;2023-04-28T01:05:09;56.67;;;41.25;;
20443;SDS011;10381;53.730;10.010;2023-04-28T01:09:10;56.13;;;40.80;;
20443;SDS011;10381;53.730;10.010;2023-04-28T01:13:10;54.53;;;41.37;;
20443;SDS011;10381;53.730;10.010;2023-04-28T01:17:11;63.15;;;43.47;;
20443;SDS011;10381;53.730;10.010;2023-04-28T01:21:11;50.50;;;41.80;;
20443;SDS011;10381;53.730;10.010;2023-04-28T01:25:12;53.78;;;42.55;;
20443;SDS011;10381;53.730;10.010;2023-04-28T01:29:12;50.08;;;41.03;;
20443;SDS011;10381;53.730;10.010;2023-04-28T01:33:13;47.25;;;40.25;;
20443;SDS011;10381;53.730;10.010;2023-04-28T01:37:13;57.77;;;41.33;;
20443;SDS011;10381;53.730;10.010;2023-04-28T01:41:13;61.80;;;43.88;;
20443;SDS011;10381;53.730;10.010;2023-04-28T01:45:14;51.15;;;42.22;;
20443;SDS011;10381;53.730;10.010;2023-04-28T01:49:14;67.65;;;43.10;;
20443;SDS011;10381;53.730;10.010;2023-04-28T01:53:14;56.93;;;43.63;;
20443;SDS011;10381;53.730;10.010;2023-04-28T01:57:19;54.42;;;41.58;;
20443;SDS011;10381;53.730;10.010;2023-04-28T02:01:19;52.25;;;41.13;;
20443;SDS011;10381;53.730;10.010;2023-04-28T02:05:20;63.60;;;42.77;;
20443;SDS011;10381;53.730;10.010;2023-04-28T02:09:20;56.65;;;41.83;;
20443;SDS011;10381;53.730;10.010;2023-04-28T02:13:20;59.70;;;41.30;;
20443;SDS011;10381;53.730;10.010;2023-04-28T02:17:21;50.87;;;41.70;;
20443;SDS011;10381;53.730;10.010;2023-04-28T02:21:21;52.40;;;40.33;;
20443;SDS011;10381;53.730;10.010;2023-04-28T02:25:21;58.40;;;43.63;;
20443;SDS011;10381;53.730;10.010;2023-04-28T02:29:21;54.93;;;43.17;;
20443;SDS011;10381;53.730;10.010;2023-04-28T02:33:23;57.70;;;44.10;;
20443;SDS011;10381;53.730;10.010;2023-04-28T02:37:23;53.00;;;42.17;;
20443;SDS011;10381;53.730;10.010;2023-04-28T02:41:24;71.25;;;44.15;;
20443;SDS011;10381;53.730;10.010;2023-04-28T02:45:25;61.58;;;43.65;;
20443;SDS011;10381;53.730;10.010;2023-04-28T02:49:25;60.43;;;42.20;;
20443;SDS011;10381;53.730;10.010;2023-04-28T02:53:26;58.35;;;41.97;;
20443;SDS011;10381;53.730;10.010;2023-04-28T02:57:26;58.83;;;43.30;;
20443;SDS011;10381;53.730;10.010;2023-04-28T03:01:26;71.67;;;42.07;;
20443;SDS011;10381;53.730;10.010;2023-04-28T03:05:27;63.67;;;41.43;;
20443;SDS011;10381;53.730;10.010;2023-04-28T03:09:27;57.25;;;41.35;;
20443;SDS011;10381;53.730;10.010;2023-04-28T03:13:27;58.53;;;40.73;;
20443;SDS011;10381;53.730;10.010;2023-04-28T03:17:28;52.60;;;40.17;;
20443;SDS011;10381;53.730;10.010;2023-04-28T03:21:29;58.58;;;41.47;;
20443;SDS011;10381;53.730;10.010;2023-04-28T03:25:30;63.80;;;41.47;;
20443;SDS011;10381;53.730;10.010;2023-04-28T03:29:34;56.05;;;39.45;;
20443;SDS011;10381;53.730;10.010;2023-04-28T03:33:34;54.30;;;42.28;;
20443;SDS011;10381;53.730;10.010;2023-04-28T03:37:35;63.92;;;43.03;;
20443;SDS011;10381;53.730;10.010;2023-04-28T03:41:35;56.88;;;42.15;;
20443;SDS011;10381;53.730;10.010;2023-04-28T03:45:36;59.50;;;41.77;;
20443;SDS011;10381;53.730;10.010;2023-04-28T03:49:36;56.83;;;40.92;;
20443;SDS011;10381;53.730;10.010;2023-04-28T03:53:37;59.83;;;40.90;;
20443;SDS011;10381;53.730;10.010;2023-04-28T03:57:37;54.03;;;39.83;;
20443;SDS011;10381;53.730;10.010;2023-04-28T04:01:37;53.83;;;39.50;;
20443;SDS011;10381;53.730;10.010;2023-04-28T04:05:38;49.93;;;39.60;;
20443;SDS011;10381;53.730;10.010;2023-04-28T04:09:40;59.00;;;40.22;;
20443;SDS011;10381;53.730;10.010;2023-04-28T04:13:40;59.08;;;41.13;;
20443;SDS011;10381;53.730;10.010;2023-04-28T04:17:41;60.40;;;39.38;;
20443;SDS011;10381;53.730;10.010;2023-04-28T04:21:41;57.87;;;36.77;;
20443;SDS011;10381;53.730;10.010;2023-04-28T04:25:42;53.67;;;35.20;;
20443;SDS011;10381;53.730;10.010;2023-04-28T04:29:42;50.17;;;33.73;;
20443;SDS011;10381;53.730;10.010;2023-04-28T04:33:42;63.13;;;35.47;;
20443;SDS011;10381;53.730;10.010;2023-04-28T04:37:43;52.57;;;37.10;;
20443;SDS011;10381;53.730;10.010;2023-04-28T04:41:43;54.95;;;37.15;;
20443;SDS011;10381;53.730;10.010;2023-04-28T04:45:43;58.40;;;38.53;;
20443;SDS011;10381;53.730;10.010;2023-04-28T04:49:44;51.78;;;35.58;;
20443;SDS011;10381;53.730;10.010;2023-04-28T04:53:45;51.77;;;39.10;;
20443;SDS011;10381;53.730;10.010;2023-04-28T04:57:45;51.30;;;33.53;;
20443;SDS011;10381;53.730;10.010;2023-04-28T05:01:45;47.78;;;33.78;;
20443;SDS011;10381;53.730;10.010;2023-04-28T05:05:46;45.00;;;31.17;;
20443;SDS011;10381;53.730;10.010;2023-04-28T05:09:47;42.28;;;30.02;;
20443;SDS011;10381;53.730;10.010;2023-04-28T05:13:47;41.93;;;29.17;;
20443;SDS011;10381;53.730;10.010;2023-04-28T05:17:48;41.70;;;27.87;;
20443;SDS011;10381;53.730;10.010;2023-04-28T05:21:48;42.50;;;27.25;;
20443;SDS011;10381;53.730;10.010;2023-04-28T05:25:54;29.40;;;23.80;;
20443;SDS011;10381;53.730;10.010;2023-04-28T05:29:55;30.60;;;23.45;;
20443;SDS011;10381;53.730;10.010;2023-04-28T05:33:55;26.63;;;21.90;;
20443;SDS011;10381;53.730;10.010;2023-04-28T05:37:55;29.40;;;21.33;;
20443;SDS011;10381;53.730;10.010;2023-04-28T05:41:56;28.35;;;22.25;;
20443;SDS011;10381;53.730;10.010;2023-04-28T05:45:57;22.77;;;20.20;;
20443;SDS011;10381;53.730;10.010;2023-04-28T05:49:57;24.15;;;20.02;;
20443;SDS011;10381;53.730;10.010;2023-04-28T05:53:58;21.33;;;19.03;;
20443;SDS011;10381;53.730;10.010;2023-04-28T05:57:58;28.10;;;18.52;;
20443;SDS011;10381;53.730;10.010;2023-04-28T06:01:58;24.70;;;20.75;;
20443;SDS011;10381;53.730;10.010;2023-04-28T06:05:59;19.73;;;17.63;;
20443;SDS011;10381;53.730;10.010;2023-04-28T06:09:59;19.38;;;17.38;;
20443;SDS011;10381;53.730;10.010;2023-04-28T06:13:59;19.60;;;16.77;;
20443;SDS011;10381;53.730;10.010;2023-04-28T06:18:00;24.07;;;15.83;;
20443;SDS011;10381;53.730;10.010;2023-04-28T06:22:00;19.10;;;15.65;;
20443;SDS011;10381;53.730;10.010;2023-04-28T06:26:00;13.10;;;11.10;;
20443;SDS011;10381;53.730;10.010;2023-04-28T06:30:01;15.57;;;9.07;;
20443;SDS011;10381;53.730;10.010;2023-04-28T06:34:01;13.30;;;9.70;;
20443;SDS011;10381;53.730;10.010;2023-04-28T06:38:01;10.90;;;8.80;;
20443;SDS011;10381;53.730;10.010;2023-04-28T06:42:02;11.27;;;8.63;;
20443;SDS011;10381;53.730;10.010;2023-04-28T06:46:03;9.60;;;8.40;;
20443;SDS011;10381;53.730;10.010;2023-04-28T06:50:03;10.00;;;8.27;;
20443;SDS011;10381;53.730;10.010;2023-04-28T06:54:03;14.90;;;7.82;;
20443;SDS011;10381;53.730;10.010;2023-04-28T06:58:04;11.43;;;7.63;;
20443;SDS011;10381;53.730;10.010;2023-04-28T07:02:05;8.43;;;7.45;;
20443;SDS011;10381;53.730;10.010;2023-04-28T07:06:05;10.10;;;7.45;;
20443;SDS011;10381;53.730;10.010;2023-04-28T07:10:06;12.98;;;7.20;;
20443;SDS011;10381;53.730;10.010;2023-04-28T07:14:06;13.25;;;7.00;;
20443;SDS011;10381;53.730;10.010;2023-04-28T07:18:07;9.40;;;6.78;;
20443;SDS011;10381;53.730;10.010;2023-04-28T07:22:07;18.13;;;7.70;;
20443;SDS011;10381;53.730;10.010;2023-04-28T07:26:07;12.67;;;7.20;;
20443;SDS011;10381;53.730;10.010;2023-04-28T07:30:08;10.27;;;7.18;;
20443;SDS011;10381;53.730;10.010;2023-04-28T07:34:09;12.93;;;7.20;;
20443;SDS011;10381;53.730;10.010;2023-04-28T07:38:09;6.73;;;5.57;;
20443;SDS011;10381;53.730;10.010;2023-04-28T07:42:09;7.57;;;6.80;;
20443;SDS011;10381;53.730;10.010;2023-04-28T07:46:10;8.87;;;7.20;;
20443;SDS011;10381;53.730;10.010;2023-04-28T07:50:11;16.65;;;6.32;;
20443;SDS011;10381;53.730;10.010;2023-04-28T07:54:12;7.30;;;6.60;;
20443;SDS011;10381;53.730;10.010;2023-04-28T07:58:12;9.47;;;6.43;;
20443;SDS011;10381;53.730;10.010;2023-04-28T08:02:12;13.67;;;6.43;;
20443;SDS011;10381;53.730;10.010;2023-04-28T08:06:14;7.75;;;6.95;;
20443;SDS011;10381;53.730;10.010;2023-04-28T08:10:14;7.50;;;6.75;;
20443;SDS011;10381;53.730;10.010;2023-04-28T08:14:14;8.85;;;7.00;;
20443;SDS011;10381;53.730;10.010;2023-04-28T08:18:15;12.13;;;6.57;;
20443;SDS011;10381;53.730;10.010;2023-04-28T08:22:15;9.60;;;6.82;;
20443;SDS011;10381;53.730;10.010;2023-04-28T08:26:16;7.22;;;6.53;;
20443;SDS011;10381;53.730;10.010;2023-04-28T08:30:16;11.88;;;6.03;;
20443;SDS011;10381;53.730;10.010;2023-04-28T08:34:16;12.23;;;6.87;;
20443;SDS011;10381;53.730;10.010;2023-04-28T08:38:17;11.03;;;7.03;;
20443;SDS011;10381;53.730;10.010;2023-04-28T08:42:17;7.07;;;6.38;;
20443;SDS011;10381;53.730;10.010;2023-04-28T08:46:18;7.80;;;6.65;;
20443;SDS011;10381;53.730;10.010;2023-04-28T08:50:21;8.18;;;6.63;;
20443;SDS011;10381;53.730;10.010;2023-04-28T08:54:22;9.27;;;7.00;;
20443;SDS011;10381;53.730;10.010;2023-04-28T08:58:26;8.27;;;6.97;;
20443;SDS011;10381;53.730;10.010;2023-04-28T09:02:27;9.63;;;6.85;;
20443;SDS011;10381;53.730;10.010;2023-04-28T09:06:34;8.30;;;6.65;;
20443;SDS011;10381;53.730;10.010;2023-04-28T09:10:36;7.55;;;6.68;;
20443;SDS011;10381;53.730;10.010;2023-04-28T09:14:37;8.43;;;7.03;;
20443;SDS011;10381;53.730;10.010;2023-04-28T09:18:38;7.43;;;6.72;;
20443;SDS011;10381;53.730;10.010;2023-04-28T09:22:39;10.50;;;7.07;;
20443;SDS011;10381;53.730;10.010;2023-04-28T09:26:59;19.90;;;6.87;;
20443;SDS011;10381;53.730;10.010;2023-04-28T09:31:01;11.65;;;7.63;;
20443;SDS011;10381;53.730;10.010;2023-04-28T09:35:02;8.10;;;6.70;;
20443;SDS011;10381;53.730;10.010;2023-04-28T09:39:03;8.93;;;6.97;;
20443;SDS011;10381;53.730;10.010;2023-04-28T09:43:04;9.10;;;7.07;;
20443;SDS011;10381;53.730;10.010;2023-04-28T09:47:21;11.43;;;7.50;;
20443;SDS011;10381;53.730;10.010;2023-04-28T09:51:21;10.80;;;8.07;;
20443;SDS011;10381;53.730;10.010;2023-04-28T09:55:22;9.27;;;7.35;;
20443;SDS011;10381;53.730;10.010;2023-04-28T09:59:23;12.88;;;8.10;;
20443;SDS011;10381;53.730;10.010;2023-04-28T10:03:24;9.40;;;6.93;;
20443;SDS011;10381;53.730;10.010;2023-04-28T10:07:26;11.20;;;8.02;;
20443;SDS011;10381;53.730;10.010;2023-04-28T10:11:27;7.97;;;7.15;;
20443;SDS011;10381;53.730;10.010;2023-04-28T10:15:28;14.07;;;7.78;;
20443;SDS011;10381;53.730;10.010;2023-04-28T10:19:29;8.23;;;7.28;;
20443;SDS011;10381;53.730;10.010;2023-04-28T10:28:03;9.27;;;7.93;;
20443;SDS011;10381;53.730;10.010;2023-04-28T10:32:15;10.38;;;7.70;;
20443;SDS011;10381;53.730;10.010;2023-04-28T10:40:51;7.75;;;6.82;;
20443;SDS011;10381;53.730;10.010;2023-04-28T10:44:53;12.07;;;7.15;;
20443;SDS011;10381;53.730;10.010;2023-04-28T10:48:53;16.83;;;8.00;;
20443;SDS011;10381;53.730;10.010;2023-04-28T10:52:54;10.88;;;7.20;;
20443;SDS011;10381;53.730;10.010;2023-04-28T10:57:13;10.57;;;7.33;;
20443;SDS011;10381;53.730;10.010;2023-04-28T11:05:21;15.73;;;7.68;;
20443;SDS011;10381;53.730;10.010;2023-04-28T11:13:30;11.40;;;7.65;;
20443;SDS011;10381;53.730;10.010;2023-04-28T11:17:38;8.80;;;6.78;;
20443;SDS011;10381;53.730;10.010;2023-04-28T11:21:40;8.15;;;6.72;;
20443;SDS011;10381;53.730;10.010;2023-04-28T11:25:56;11.35;;;6.93;;
20443;SDS011;10381;53.730;10.010;2023-04-28T11:29:57;12.57;;;7.13;;
20443;SDS011;10381;53.730;10.010;2023-04-28T11:34:05;11.23;;;8.07;;
20443;SDS011;10381;53.730;10.010;2023-04-28T11:38:08;11.82;;;7.40;;
20443;SDS011;10381;53.730;10.010;2023-04-28T11:42:09;11.30;;;6.97;;
20443;SDS011;10381;53.730;10.010;2023-04-28T11:46:09;11.40;;;6.95;;
20443;SDS011;10381;53.730;10.010;2023-04-28T11:50:15;11.93;;;6.75;;
20443;SDS011;10381;53.730;10.010;2023-04-28T11:54:23;13.95;;;7.65;;
20443;SDS011;10381;53.730;10.010;2023-04-28T11:58:25;9.73;;;7.25;;
20443;SDS011;10381;53.730;10.010;2023-04-28T12:02:27;10.45;;;6.93;;
20443;SDS011;10381;53.730;10.010;2023-04-28T12:06:30;7.15;;;6.35;;
20443;SDS011;10381;53.730;10.010;2023-04-28T12:10:31;9.88;;;7.18;;
20443;SDS011;10381;53.730;10.010;2023-04-28T12:14:32;8.82;;;6.55;;
20443;SDS011;10381;53.730;10.010;2023-04-28T12:19:05;9.38;;;7.10;;
20443;SDS011;10381;53.730;10.010;2023-04-28T12:23:09;10.48;;;6.65;;
20443;SDS011;10381;53.730;10.010;2023-04-28T12:27:16;9.25;;;6.53;;
20443;SDS011;10381;53.730;10.010;2023-04-28T12:31:20;11.35;;;7.50;;
20443;SDS011;10381;53.730;10.010;2023-04-28T12:35:21;14.60;;;7.13;;
20443;SDS011;10381;53.730;10.010;2023-04-28T12:39:22;10.52;;;6.75;;
20443;SDS011;10381;53.730;10.010;2023-04-28T12:43:23;10.40;;;6.90;;
20443;SDS011;10381;53.730;10.010;2023-04-28T12:47:26;11.25;;;7.45;;
20443;SDS011;10381;53.730;10.010;2023-04-28T12:51:26;8.73;;;7.10;;
20443;SDS011;10381;53.730;10.010;2023-04-28T12:55:28;10.90;;;6.95;;
20443;SDS011;10381;53.730;10.010;2023-04-28T12:59:29;10.82;;;7.30;;
20443;SDS011;10381;53.730;10.010;2023-04-28T13:03:30;12.65;;;7.43;;
20443;SDS011;10381;53.730;10.010;2023-04-28T13:07:30;10.13;;;6.35;;
20443;SDS011;10381;53.730;10.010;2023-04-28T13:11:32;11.10;;;6.35;;
20443;SDS011;10381;53.730;10.010;2023-04-28T13:15:33;8.63;;;6.17;;
20443;SDS011;10381;53.730;10.010;2023-04-28T13:19:34;9.60;;;6.88;;
20443;SDS011;10381;53.730;10.010;2023-04-28T13:23:35;9.70;;;7.35;;
20443;SDS011;10381;53.730;10.010;2023-04-28T13:27:35;17.70;;;7.50;;
20443;SDS011;10381;53.730;10.010;2023-04-28T13:31:36;19.27;;;7.10;;
20443;SDS011;10381;53.730;10.010;2023-04-28T13:35:36;10.98;;;7.50;;
20443;SDS011;10381;53.730;10.010;2023-04-28T13:39:36;10.02;;;6.95;;
20443;SDS011;10381;53.730;10.010;2023-04-28T13:43:37;18.77;;;7.70;;
20443;SDS011;10381;53.730;10.010;2023-04-28T13:47:37;26.97;;;7.63;;
20443;SDS011;10381;53.730;10.010;2023-04-28T13:51:37;13.17;;;7.23;;
20443;SDS011;10381;53.730;10.010;2023-04-28T13:55:37;15.70;;;7.32;;
20443;SDS011;10381;53.730;10.010;2023-04-28T13:59:38;15.73;;;7.47;;
20443;SDS011;10381;53.730;10.010;2023-04-28T14:03:38;13.60;;;7.25;;
20443;SDS011;10381;53.730;10.010;2023-04-28T14:07:39;15.68;;;7.00;;
20443;SDS011;10381;53.730;10.010;2023-04-28T14:11:40;14.93;;;6.95;;
20443;SDS011;10381;53.730;10.010;2023-04-28T14:15:40;8.37;;;6.63;;
20443;SDS011;10381;53.730;10.010;2023-04-28T14:19:40;7.97;;;6.82;;
20443;SDS011;10381;53.730;10.010;2023-04-28T14:23:41;11.50;;;6.97;;
20443;SDS011;10381;53.730;10.010;2023-04-28T14:27:41;14.77;;;7.00;;
20443;SDS011;10381;53.730;10.010;2023-04-28T14:31:41;9.45;;;6.88;;
20443;SDS011;10381;53.730;10.010;2023-04-28T14:35:42;10.17;;;7.57;;
20443;SDS011;10381;53.730;10.010;2023-04-28T14:39:42;16.20;;;6.88;;
20443;SDS011;10381;53.730;10.010;2023-04-28T14:43:43;13.10;;;7.70;;
20443;SDS011;10381;53.730;10.010;2023-04-28T14:47:43;14.25;;;7.65;;
20443;SDS011;10381;53.730;10.010;2023-04-28T14:51:44;12.73;;;6.90;;
20443;SDS011;10381;53.730;10.010;2023-04-28T14:55:45;12.05;;;7.45;;
20443;SDS011;10381;53.730;10.010;2023-04-28T14:59:45;13.30;;;7.28;;
20443;SDS011;10381;53.730;10.010;2023-04-28T15:03:46;12.88;;;7.60;;
20443;SDS011;10381;53.730;10.010;2023-04-28T15:07:46;17.50;;;7.80;;
20443;SDS011;10381;53.730;10.010;2023-04-28T15:11:47;16.67;;;7.00;;
20443;SDS011;10381;53.730;10.010;2023-04-28T15:15:47;16.17;;;7.97;;
20443;SDS011;10381;53.730;10.010;2023-04-28T15:19:49;13.68;;;8.05;;
20443;SDS011;10381;53.730;10.010;2023-04-28T15:23:50;14.88;;;9.02;;
20443;SDS011;10381;53.730;10.010;2023-04-28T15:27:50;12.37;;;8.20;;
20443;SDS011;10381;53.730;10.010;2023-04-28T15:31:51;12.93;;;8.52;;
20443;SDS011;10381;53.730;10.010;2023-04-28T15:35:52;11.10;;;8.75;;
20443;SDS011;10381;53.730;10.010;2023-04-28T15:39:52;18.90;;;10.00;;
20443;SDS011;10381;53.730;10.010;2023-04-28T15:43:53;18.98;;;10.73;;
20443;SDS011;10381;53.730;10.010;2023-04-28T15:47:54;21.10;;;10.95;;
20443;SDS011;10381;53.730;10.010;2023-04-28T15:51:55;20.33;;;12.38;;
20443;SDS011;10381;53.730;10.010;2023-04-28T15:55:56;21.30;;;12.00;;
20443;SDS011;10381;53.730;10.010;2023-04-28T15:59:57;16.25;;;11.93;;
20443;SDS011;10381;53.730;10.010;2023-04-28T16:03:57;15.80;;;10.53;;
20443;SDS011;10381;53.730;10.010;2023-04-28T16:07:57;16.23;;;10.55;;
20443;SDS011;10381;53.730;10.010;2023-04-28T16:11:58;20.52;;;11.82;;
20443;SDS011;10381;53.730;10.010;2023-04-28T16:15:59;16.23;;;10.88;;
20443;SDS011;10381;53.730;10.010;2023-04-28T16:20:00;17.38;;;11.73;;
20443;SDS011;10381;53.730;10.010;2023-04-28T16:24:01;18.52;;;10.73;;
20443;SDS011;10381;53.730;10.010;2023-04-28T16:28:03;18.35;;;11.70;;
20443;SDS011;10381;53.730;10.010;2023-04-28T16:32:03;14.45;;;11.05;;
20443;SDS011;10381;53.730;10.010;2023-04-28T16:36:04;25.80;;;10.95;;
20443;SDS011;10381;53.730;10.010;2023-04-28T16:40:05;18.52;;;11.25;;
20443;SDS011;10381;53.730;10.010;2023-04-28T16:44:07;20.90;;;12.23;;
20443;SDS011;10381;53.730;10.010;2023-04-28T16:48:08;21.30;;;11.15;;
20443;SDS011;10381;53.730;10.010;2023-04-28T16:52:08;19.40;;;11.07;;
20443;SDS011;10381;53.730;10.010;2023-04-28T16:56:08;29.60;;;11.57;;
20443;SDS011;10381;53.730;10.010;2023-04-28T17:00:09;19.27;;;11.20;;
20443;SDS011;10381;53.730;10.010;2023-04-28T17:04:10;19.77;;;11.45;;
20443;SDS011;10381;53.730;10.010;2023-04-28T17:08:10;18.60;;;11.73;;
20443;SDS011;10381;53.730;10.010;2023-04-28T17:12:11;18.37;;;11.70;;
20443;SDS011;10381;53.730;10.010;2023-04-28T17:16:11;31.58;;;12.82;;
20443;SDS011;10381;53.730;10.010;2023-04-28T17:20:12;29.63;;;12.90;;
20443;SDS011;10381;53.730;10.010;2023-04-28T17:24:15;22.23;;;14.95;;
20443;SDS011;10381;53.730;10.010;2023-04-28T17:28:15;24.60;;;16.83;;
20443;SDS011;10381;53.730;10.010;2023-04-28T17:32:16;41.33;;;21.83;;
20443;SDS011;10381;53.730;10.010;2023-04-28T17:36:19;40.47;;;33.75;;
20443;SDS011;10381;53.730;10.010;2023-04-28T17:40:22;72.15;;;63.03;;
20443;SDS011;10381;53.730;10.010;2023-04-28T17:44:23;149.75;;;136.35;;
20443;SDS011;10381;53.730;10.010;2023-04-28T17:48:23;201.77;;;184.27;;
20443;SDS011;10381;53.730;10.010;2023-04-28T17:52:23;323.97;;;296.40;;
20443;SDS011;10381;53.730;10.010;2023-04-28T17:56:24;341.48;;;314.05;;
20443;SDS011;10381;53.730;10.010;2023-04-28T18:00:24;414.88;;;380.92;;
20443;SDS011;10381;53.730;10.010;2023-04-28T18:04:25;428.75;;;393.48;;
20443;SDS011;10381;53.730;10.010;2023-04-28T18:08:26;430.55;;;393.88;;
20443;SDS011;10381;53.730;10.010;2023-04-28T18:12:26;438.95;;;402.00;;
20443;SDS011;10381;53.730;10.010;2023-04-28T18:16:28;443.45;;;405.70;;
20443;SDS011;10381;53.730;10.010;2023-04-28T18:20:28;476.50;;;435.98;;
20443;SDS011;10381;53.730;10.010;2023-04-28T18:24:28;513.43;;;469.67;;
20443;SDS011;10381;53.730;10.010;2023-04-28T18:28:29;580.33;;;530.67;;
20443;SDS011;10381;53.730;10.010;2023-04-28T18:32:30;653.70;;;599.03;;
20443;SDS011;10381;53.730;10.010;2023-04-28T18:36:32;685.78;;;627.20;;
20443;SDS011;10381;53.730;10.010;2023-04-28T18:40:35;712.40;;;650.30;;
20443;SDS011;10381;53.730;10.010;2023-04-28T18:44:37;704.85;;;642.72;;
20443;SDS011;10381;53.730;10.010;2023-04-28T18:48:38;705.03;;;644.07;;
20443;SDS011;10381;53.730;10.010;2023-04-28T18:52:39;710.92;;;647.78;;
20443;SDS011;10381;53.730;10.010;2023-04-28T18:56:39;718.67;;;654.90;;
20443;SDS011;10381;53.730;10.010;2023-04-28T19:00:40;732.05;;;665.30;;
20443;SDS011;10381;53.730;10.010;2023-04-28T19:04:43;688.53;;;624.00;;
20443;SDS011;10381;53.730;10.010;2023-04-28T19:08:44;700.10;;;632.80;;
20443;SDS011;10381;53.730;10.010;2023-04-28T19:12:44;681.67;;;615.87;;
20443;SDS011;10381;53.730;10.010;2023-04-28T19:16:44;669.23;;;604.47;;
20443;SDS011;10381;53.730;10.010;2023-04-28T19:20:45;660.60;;;596.80;;
20443;SDS011;10381;53.730;10.010;2023-04-28T19:24:45;653.42;;;590.03;;
20443;SDS011;10381;53.730;10.010;2023-04-28T19:28:45;630.92;;;569.83;;
20443;SDS011;10381;53.730;10.010;2023-04-28T19:32:46;639.33;;;577.07;;
20443;SDS011;10381;53.730;10.010;2023-04-28T19:36:46;627.58;;;566.28;;
20443;SDS011;10381;53.730;10.010;2023-04-28T19:40:46;617.13;;;556.83;;
20443;SDS011;10381;53.730;10.010;2023-04-28T19:44:47;619.38;;;558.45;;
20443;SDS011;10381;53.730;10.010;2023-04-28T19:48:51;616.75;;;557.10;;
20443;SDS011;10381;53.730;10.010;2023-04-28T19:52:52;614.67;;;555.20;;
20443;SDS011;10381;53.730;10.010;2023-04-28T19:56:52;611.20;;;552.40;;
20443;SDS011;10381;53.730;10.010;2023-04-28T20:00:53;590.95;;;532.83;;
20443;SDS011;10381;53.730;10.010;2023-04-28T20:04:53;580.50;;;523.10;;
20443;SDS011;10381;53.730;10.010;2023-04-28T20:08:55;581.22;;;524.42;;
20443;SDS011;10381;53.730;10.010;2023-04-28T20:12:55;578.97;;;522.43;;
20443;SDS011;10381;53.730;10.010;2023-04-28T20:16:56;569.25;;;513.28;;
20443;SDS011;10381;53.730;10.010;2023-04-28T20:20:56;586.08;;;528.45;;
20443;SDS011;10381;53.730;10.010;2023-04-28T20:24:57;579.90;;;522.47;;
20443;SDS011;10381;53.730;10.010;2023-04-28T20:28:59;568.45;;;512.08;;
20443;SDS011;10381;53.730;10.010;2023-04-28T20:32:59;560.43;;;504.20;;
20443;SDS011;10381;53.730;10.010;2023-04-28T20:37:00;560.07;;;503.90;;
20443;SDS011;10381;53.730;10.010;2023-04-28T20:41:03;545.58;;;491.17;;
20443;SDS011;10381;53.730;10.010;2023-04-28T20:45:03;554.53;;;498.20;;
20443;SDS011;10381;53.730;10.010;2023-04-28T20:49:04;549.53;;;493.70;;
20443;SDS011;10381;53.730;10.010;2023-04-28T20:53:04;547.63;;;492.27;;
20443;SDS011;10381;53.730;10.010;2023-04-28T20:57:05;534.40;;;480.27;;
20443;SDS011;10381;53.730;10.010;2023-04-28T21:01:05;532.05;;;478.83;;
20443;SDS011;10381;53.730;10.010;2023-04-28T21:05:05;524.67;;;471.50;;
20443;SDS011;10381;53.730;10.010;2023-04-28T21:09:06;519.60;;;467.10;;
20443;SDS011;10381;53.730;10.010;2023-04-28T21:13:06;519.10;;;466.13;;
20443;SDS011;10381;53.730;10.010;2023-04-28T21:17:11;522.85;;;469.63;;
20443;SDS011;10381;53.730;10.010;2023-04-28T21:21:11;512.83;;;460.67;;
20443;SDS011;10381;53.730;10.010;2023-04-28T21:25:12;496.88;;;445.80;;
20443;SDS011;10381;53.730;10.010;2023-04-28T21:29:12;499.08;;;447.52;;
20443;SDS011;10381;53.730;10.010;2023-04-28T21:33:14;493.33;;;443.15;;
20443;SDS011;10381;53.730;10.010;2023-04-28T21:37:15;474.13;;;426.30;;
20443;SDS011;10381;53.730;10.010;2023-04-28T21:41:15;471.48;;;424.17;;
20443;SDS011;10381;53.730;10.010;2023-04-28T21:45:16;436.87;;;392.67;;
20443;SDS011;10381;53.730;10.010;2023-04-28T21:49:16;412.90;;;371.80;;
20443;SDS011;10381;53.730;10.010;2023-04-28T21:53:16;416.85;;;376.45;;
20443;SDS011;10381;53.730;10.010;2023-04-28T21:57:17;420.73;;;379.90;;
20443;SDS011;10381;53.730;10.010;2023-04-28T22:01:17;430.70;;;388.83;;
20443;SDS011;10381;53.730;10.010;2023-04-28T22:05:18;425.13;;;383.58;;
20443;SDS011;10381;53.730;10.010;2023-04-28T22:09:18;434.95;;;392.45;;
20443;SDS011;10381;53.730;10.010;2023-04-28T22:13:19;429.08;;;387.42;;
20443;SDS011;10381;53.730;10.010;2023-04-28T22:17:21;424.17;;;382.67;;
20443;SDS011;10381;53.730;10.010;2023-04-28T22:21:21;411.20;;;370.27;;
20443;SDS011;10381;53.730;10.010;2023-04-28T22:25:21;435.13;;;393.27;;
20443;SDS011;10381;53.730;10.010;2023-04-28T22:29:22;426.05;;;384.02;;
20443;SDS011;10381;53.730;10.010;2023-04-28T22:33:22;417.33;;;376.60;;
20443;SDS011;10381;53.730;10.010;2023-04-28T22:37:22;424.63;;;382.97;;
20443;SDS011;10381;53.730;10.010;2023-04-28T22:41:23;418.97;;;378.20;;
20443;SDS011;10381;53.730;10.010;2023-04-28T22:45:24;427.77;;;385.17;;
20443;SDS011;10381;53.730;10.010;2023-04-28T22:49:25;415.52;;;375.13;;
20443;SDS011;10381;53.730;10.010;2023-04-28T22:53:27;406.67;;;367.45;;
20443;SDS011;10381;53.730;10.010;2023-04-28T22:57:27;374.05;;;338.30;;
20443;SDS011;10381;53.730;10.010;2023-04-28T23:01:28;374.20;;;338.57;;
20443;SDS011;10381;53.730;10.010;2023-04-28T23:05:28;362.02;;;327.92;;
20443;SDS011;10381;53.730;10.010;2023-04-28T23:09:28;345.33;;;313.50;;
20443;SDS011;10381;53.730;10.010;2023-04-28T23:13:30;342.77;;;310.27;;
20443;SDS011;10381;53.730;10.010;2023-04-28T23:17:30;334.17;;;302.63;;
20443;SDS011;10381;53.730;10.010;2023-04-28T23:21:30;309.60;;;280.90;;
20443;SDS011;10381;53.730;10.010;2023-04-28T23:25:31;322.70;;;292.97;;